Time;durP1;ratioP1;P1;durP2;ratioP2;P2;SDS_P1;SDS_P2;PMS_P1;PMS_P2;Temp;Humidity;BMP_temperature;BMP_pressure;BME280_temperature;BME280_humidity;BME280_pressure;Samples;Min_cycle;Max_cycle;Signal;HPM_P1;HPM_P2
2023/09/29 00:00:41;;;;;;;8.20;6.67;;;18.00;1.00;;;;;;5024448;28;20181;-74
2023/09/29 00:03:08;;;;;;;8.70;6.53;;;17.90;1.00;;;;;;5023865;28;20206;-74
2023/09/29 00:05:34;;;;;;;11.97;7.27;;;17.90;1.00;;;;;;5024058;28;20747;-75
2023/09/29 00:08:00;;;;;;;9.07;6.67;;;17.90;1.00;;;;;;5045766;28;20439;-75
2023/09/29 00:10:25;;;;;;;12.80;6.70;;;17.90;1.00;;;;;;5027878;28;20182;-75
2023/09/29 00:12:51;;;;;;;10.00;6.40;;;18.00;1.00;;;;;;5023079;28;20205;-74
2023/09/29 00:15:18;;;;;;;8.10;6.50;;;18.00;1.00;;;;;;5029844;28;20182;-77
2023/09/29 00:17:44;;;;;;;8.80;7.07;;;18.00;1.00;;;;;;5028263;28;20184;-75
2023/09/29 00:22:39;;;;;;;8.10;6.77;;;17.90;1.00;;;;;;5034288;28;20221;-76
2023/09/29 00:25:06;;;;;;;8.70;6.30;;;17.90;1.00;;;;;;5025923;28;20467;-75
2023/09/29 00:27:31;;;;;;;9.20;6.53;;;17.80;1.00;;;;;;5033145;28;20189;-75
2023/09/29 00:29:57;;;;;;;9.80;6.83;;;17.80;1.00;;;;;;5027320;28;20810;-75
2023/09/29 00:32:22;;;;;;;8.17;6.70;;;17.70;1.00;;;;;;5030435;28;20289;-76
2023/09/29 00:34:48;;;;;;;10.70;6.53;;;17.70;1.00;;;;;;5040708;28;20681;-75
2023/09/29 00:37:14;;;;;;;9.10;6.90;;;17.70;1.00;;;;;;5030133;28;20190;-76
2023/09/29 00:39:40;;;;;;;7.10;6.17;;;17.60;1.00;;;;;;5022091;28;20672;-75
2023/09/29 00:42:06;;;;;;;11.67;6.60;;;17.50;1.00;;;;;;5028008;28;20582;-75
2023/09/29 00:44:33;;;;;;;8.03;6.67;;;17.60;1.00;;;;;;5028819;28;20392;-74
2023/09/29 00:47:00;;;;;;;8.60;6.73;;;17.60;1.00;;;;;;5028586;28;20186;-78
2023/09/29 00:49:29;;;;;;;12.63;6.63;;;17.60;1.00;;;;;;5027280;28;20807;-76
2023/09/29 00:51:59;;;;;;;12.33;7.20;;;17.70;1.00;;;;;;5028045;28;20476;-75
2023/09/29 00:54:28;;;;;;;9.00;7.23;;;17.70;1.00;;;;;;5029806;28;20432;-75
2023/09/29 00:56:55;;;;;;;12.03;7.73;;;17.60;1.00;;;;;;5027520;28;20432;-74
2023/09/29 00:59:21;;;;;;;8.83;6.77;;;17.60;1.00;;;;;;5028327;28;20440;-75
2023/09/29 01:01:47;;;;;;;10.20;6.90;;;17.60;1.00;;;;;;5024094;28;20507;-75
2023/09/29 01:04:13;;;;;;;7.63;6.20;;;17.60;1.00;;;;;;5019811;28;20472;-76
2023/09/29 01:06:39;;;;;;;8.43;6.53;;;17.70;1.00;;;;;;5032487;28;20186;-76
2023/09/29 01:09:06;;;;;;;11.67;7.10;;;17.70;1.00;;;;;;5026718;28;20189;-76
2023/09/29 01:11:43;;;;;;;7.80;5.90;;;17.70;1.00;;;;;;5018636;28;20472;-76
2023/09/29 01:14:12;;;;;;;6.70;6.00;;;17.70;1.00;;;;;;5027947;28;20467;-75
2023/09/29 01:16:40;;;;;;;7.93;6.23;;;17.60;1.00;;;;;;5024157;28;20469;-75
2023/09/29 01:19:18;;;;;;;9.53;7.07;;;17.60;1.00;;;;;;5019451;28;20800;-74
2023/09/29 01:21:46;;;;;;;12.23;6.50;;;17.60;1.00;;;;;;5024077;28;20459;-75
2023/09/29 01:24:13;;;;;;;10.20;7.20;;;17.50;1.00;;;;;;5035299;28;21029;-76
2023/09/29 01:26:39;;;;;;;9.13;6.33;;;17.40;1.00;;;;;;5027333;28;20441;-76
2023/09/29 01:29:05;;;;;;;13.90;7.03;;;17.40;1.00;;;;;;5020700;28;20455;-77
2023/09/29 01:31:35;;;;;;;9.27;6.57;;;17.40;1.00;;;;;;5028400;28;20255;-76
2023/09/29 01:34:04;;;;;;;8.07;6.83;;;17.30;1.00;;;;;;5025657;28;20441;-75
2023/09/29 01:36:30;;;;;;;9.47;6.87;;;17.30;1.00;;;;;;5030474;28;20433;-73
2023/09/29 01:38:56;;;;;;;8.80;6.33;;;17.30;1.00;;;;;;5030255;28;20527;-75
2023/09/29 01:41:21;;;;;;;8.53;6.20;;;17.20;1.00;;;;;;5022497;28;20560;-75
2023/09/29 01:43:47;;;;;;;8.67;6.50;;;17.20;1.00;;;;;;5027225;28;20182;-75
2023/09/29 01:46:15;;;;;;;7.37;6.57;;;17.20;1.00;;;;;;5041854;28;20193;-77
2023/09/29 01:48:41;;;;;;;7.97;6.40;;;17.20;1.00;;;;;;5022154;28;20182;-75
2023/09/29 01:51:06;;;;;;;7.50;5.90;;;17.30;1.00;;;;;;5020150;28;20594;-75
2023/09/29 01:53:32;;;;;;;7.23;6.43;;;17.30;1.00;;;;;;5025522;28;20538;-74
2023/09/29 01:55:58;;;;;;;7.70;6.50;;;17.40;1.00;;;;;;5035560;28;20185;-74
2023/09/29 01:58:24;;;;;;;9.10;6.53;;;17.30;1.00;;;;;;5022703;28;20436;-75
2023/09/29 02:00:49;;;;;;;11.53;6.37;;;17.20;1.00;;;;;;5025604;28;20264;-78
2023/09/29 02:03:16;;;;;;;8.50;6.80;;;17.20;1.00;;;;;;5021177;28;20580;-76
2023/09/29 02:05:42;;;;;;;15.17;6.30;;;17.20;1.00;;;;;;5023139;28;20365;-78
2023/09/29 02:08:09;;;;;;;10.40;6.97;;;17.30;1.00;;;;;;5027770;28;20455;-75
2023/09/29 02:10:36;;;;;;;10.10;6.80;;;17.40;1.00;;;;;;5025679;28;20432;-75
2023/09/29 02:13:04;;;;;;;10.63;6.20;;;17.40;1.00;;;;;;5027448;28;20447;-74
2023/09/29 02:15:34;;;;;;;11.93;6.43;;;17.40;1.00;;;;;;5022501;28;20436;-74
2023/09/29 02:18:06;;;;;;;8.40;6.13;;;17.50;1.00;;;;;;5024331;28;20433;-75
2023/09/29 02:20:33;;;;;;;9.90;6.93;;;;;;;;;;5027645;28;20435;-76
2023/09/29 02:23:00;;;;;;;10.83;6.47;;;17.60;1.00;;;;;;5028398;28;20514;-74
2023/09/29 02:25:26;;;;;;;7.60;6.27;;;17.60;1.00;;;;;;5031765;28;20523;-75
2023/09/29 02:27:56;;;;;;;9.47;6.57;;;17.60;1.00;;;;;;5030009;28;20889;-75
2023/09/29 02:30:24;;;;;;;9.90;6.57;;;17.50;1.00;;;;;;5028261;28;20193;-77
2023/09/29 02:32:53;;;;;;;8.80;6.40;;;17.50;1.00;;;;;;5027568;28;20468;-75
2023/09/29 02:35:19;;;;;;;9.97;6.10;;;17.40;1.00;;;;;;5023468;28;20440;-75
2023/09/29 02:37:45;;;;;;;7.90;5.93;;;17.40;1.00;;;;;;5028292;28;20470;-75
2023/09/29 02:40:11;;;;;;;7.50;6.37;;;17.40;1.00;;;;;;5027864;28;20846;-75
2023/09/29 02:42:36;;;;;;;8.23;6.70;;;17.30;1.00;;;;;;5027590;28;20468;-75
2023/09/29 02:45:02;;;;;;;8.00;6.70;;;17.30;1.00;;;;;;5026577;28;20259;-78
2023/09/29 02:47:28;;;;;;;7.77;6.30;;;17.30;1.00;;;;;;5027512;28;20277;-76
2023/09/29 02:49:53;;;;;;;7.47;6.10;;;17.30;1.00;;;;;;5027951;28;20224;-75
2023/09/29 02:52:20;;;;;;;7.60;5.93;;;17.30;1.00;;;;;;5025832;28;20216;-78
2023/09/29 02:54:45;;;;;;;7.30;5.90;;;17.40;1.00;;;;;;5025382;28;20228;-75
2023/09/29 02:57:14;;;;;;;11.07;6.67;;;17.40;1.00;;;;;;5026866;28;20428;-75
2023/09/29 02:59:39;;;;;;;11.03;6.53;;;17.50;1.00;;;;;;5031199;28;20208;-74
2023/09/29 03:02:05;;;;;;;10.37;6.47;;;17.60;1.00;;;;;;5027131;28;20897;-73
2023/09/29 03:04:31;;;;;;;8.17;6.83;;;17.60;1.00;;;;;;5026844;28;20556;-78
2023/09/29 03:06:56;;;;;;;10.90;6.63;;;17.00;1.00;;;;;;5021719;28;20437;-75
2023/09/29 03:09:22;;;;;;;16.20;7.30;;;17.60;1.00;;;;;;5031224;28;20185;-77
2023/09/29 03:11:49;;;;;;;10.33;5.93;;;17.70;1.00;;;;;;5035064;28;20676;-76
2023/09/29 03:14:16;;;;;;;11.03;6.37;;;17.70;1.00;;;;;;5030345;28;20594;-75
2023/09/29 03:16:42;;;;;;;10.90;6.60;;;17.70;1.00;;;;;;5020181;28;20749;-76
2023/09/29 03:19:08;;;;;;;7.47;6.60;;;17.70;1.00;;;;;;5027670;28;20463;-75
2023/09/29 03:21:34;;;;;;;10.00;6.97;;;17.70;1.00;;;;;;5027502;28;20819;-75
2023/09/29 03:24:01;;;;;;;12.90;6.23;;;17.70;1.00;;;;;;5028069;28;20436;-76
2023/09/29 03:26:27;;;;;;;9.53;6.33;;;17.70;1.00;;;;;;5020296;28;20190;-76
2023/09/29 03:28:55;;;;;;;8.33;6.30;;;17.70;1.00;;;;;;5032175;28;20819;-78
2023/09/29 03:31:24;;;;;;;9.57;6.60;;;17.80;1.00;;;;;;5030787;28;20462;-77
2023/09/29 03:33:51;;;;;;;11.37;6.93;;;17.80;1.00;;;;;;5028838;28;20680;-76
2023/09/29 03:36:20;;;;;;;13.20;7.40;;;17.90;1.00;;;;;;5030823;28;20432;-76
2023/09/29 03:38:46;;;;;;;7.80;6.37;;;18.00;1.00;;;;;;5030428;28;20967;-75
2023/09/29 03:41:12;;;;;;;14.33;10.10;;;18.00;1.00;;;;;;5030399;28;20471;-75
2023/09/29 03:43:38;;;;;;;18.57;12.97;;;18.00;1.00;;;;;;5030378;28;20549;-76
2023/09/29 03:46:04;;;;;;;17.07;9.50;;;18.00;1.00;;;;;;5015697;28;20524;-76
2023/09/29 03:48:30;;;;;;;10.20;7.70;;;18.00;1.00;;;;;;5020460;28;22176;-76
2023/09/29 03:50:57;;;;;;;9.73;6.47;;;18.10;1.00;;;;;;5030348;28;20220;-75
2023/09/29 03:53:23;;;;;;;7.50;6.70;;;18.10;1.00;;;;;;5031014;28;20212;-75
2023/09/29 03:55:49;;;;;;;11.13;7.00;;;18.10;1.00;;;;;;5030135;28;20447;-75
2023/09/29 03:58:14;;;;;;;9.27;6.53;;;18.20;1.00;;;;;;5028484;28;20433;-75
2023/09/29 04:00:41;;;;;;;7.97;6.57;;;18.20;1.00;;;;;;5030790;28;20182;-77
2023/09/29 04:03:07;;;;;;;14.40;7.77;;;18.10;1.00;;;;;;5048147;28;20799;-76
2023/09/29 04:05:33;;;;;;;9.47;6.60;;;18.10;1.00;;;;;;5042906;28;20436;-75
2023/09/29 04:07:58;;;;;;;14.33;7.50;;;18.10;1.00;;;;;;5029419;28;20448;-75
2023/09/29 04:10:24;;;;;;;8.97;6.70;;;18.10;1.00;;;;;;5026200;28;20268;-75
2023/09/29 04:12:49;;;;;;;8.70;7.03;;;18.10;1.00;;;;;;5030248;28;20217;-75
2023/09/29 04:15:16;;;;;;;13.87;6.97;;;18.20;1.00;;;;;;5029478;28;20193;-75
2023/09/29 04:17:41;;;;;;;8.80;6.40;;;18.20;1.00;;;;;;5028676;28;20695;-75
2023/09/29 04:20:08;;;;;;;8.73;6.87;;;18.20;1.00;;;;;;5021000;28;20444;-75
2023/09/29 04:22:34;;;;;;;11.67;7.10;;;18.30;1.00;;;;;;5029833;28;20197;-75
2023/09/29 04:25:00;;;;;;;11.43;7.30;;;18.40;1.00;;;;;;5025444;28;20439;-75
2023/09/29 04:27:26;;;;;;;10.53;7.20;;;18.40;1.00;;;;;;5028476;28;20440;-75
2023/09/29 04:29:52;;;;;;;11.90;7.30;;;18.50;1.00;;;;;;5024162;28;20455;-75
2023/09/29 04:32:18;;;;;;;10.93;7.30;;;18.40;1.00;;;;;;5027488;28;20285;-74
2023/09/29 04:34:46;;;;;;;10.40;7.40;;;18.50;1.00;;;;;;5029904;28;20691;-76
2023/09/29 04:37:12;;;;;;;13.83;7.00;;;18.50;1.00;;;;;;5030032;28;20177;-76
2023/09/29 04:39:37;;;;;;;9.17;7.20;;;18.50;1.00;;;;;;5029960;28;20517;-76
2023/09/29 04:42:07;;;;;;;11.90;6.70;;;18.50;1.00;;;;;;5027999;28;20213;-76
2023/09/29 04:44:33;;;;;;;10.40;7.10;;;18.50;1.00;;;;;;5025989;28;20189;-76
2023/09/29 04:46:59;;;;;;;8.50;5.83;;;18.50;1.00;;;;;;5023516;28;20436;-75
2023/09/29 04:49:25;;;;;;;11.27;6.70;;;18.50;1.00;;;;;;5028178;28;20612;-76
2023/09/29 04:51:50;;;;;;;11.47;7.27;;;18.50;1.00;;;;;;5025804;28;20475;-75
2023/09/29 04:54:16;;;;;;;8.87;7.10;;;18.40;1.00;;;;;;5022410;28;20179;-75
2023/09/29 04:56:41;;;;;;;9.40;7.50;;;18.40;1.00;;;;;;5036174;28;20262;-76
2023/09/29 04:59:08;;;;;;;11.03;7.10;;;18.40;1.00;;;;;;5036923;28;20177;-74
2023/09/29 05:01:36;;;;;;;10.17;7.00;;;18.40;1.00;;;;;;5028697;28;20203;-75
2023/09/29 05:04:02;;;;;;;9.40;7.13;;;18.50;1.00;;;;;;5026037;28;21008;-74
2023/09/29 05:06:28;;;;;;;10.17;6.80;;;18.50;1.00;;;;;;5021856;28;20437;-75
2023/09/29 05:08:54;;;;;;;11.57;7.77;;;18.40;1.00;;;;;;5027497;28;20445;-76
2023/09/29 05:11:27;;;;;;;10.20;6.90;;;18.40;1.00;;;;;;5020853;28;21028;-75
2023/09/29 05:13:54;;;;;;;10.60;7.07;;;18.30;1.00;;;;;;5026456;28;20186;-76
2023/09/29 05:16:20;;;;;;;9.83;6.60;;;18.30;1.00;;;;;;5025855;28;20456;-74
2023/09/29 05:18:47;;;;;;;9.80;6.97;;;18.40;1.00;;;;;;5028675;28;20437;-74
2023/09/29 05:21:13;;;;;;;10.97;7.70;;;18.40;1.00;;;;;;5024303;28;20455;-76
2023/09/29 05:23:39;;;;;;;9.23;7.13;;;18.40;1.00;;;;;;5030328;28;20440;-74
2023/09/29 05:26:07;;;;;;;11.03;7.07;;;18.50;1.00;;;;;;5029514;28;20218;-74
2023/09/29 05:28:33;;;;;;;11.33;7.20;;;18.60;1.00;;;;;;5027972;28;20219;-75
2023/09/29 05:30:59;;;;;;;9.23;6.67;;;18.60;1.00;;;;;;5028271;28;20964;-76
2023/09/29 05:33:25;;;;;;;9.93;7.50;;;18.60;1.00;;;;;;5032854;28;20962;-75
2023/09/29 05:35:51;;;;;;;9.90;6.60;;;18.70;1.00;;;;;;5030065;28;20433;-73
2023/09/29 05:38:17;;;;;;;10.70;7.60;;;18.70;1.00;;;;;;5029942;28;20193;-75
2023/09/29 05:40:44;;;;;;;11.00;7.00;;;18.70;1.00;;;;;;5035106;28;20229;-75
2023/09/29 05:43:10;;;;;;;9.87;7.73;;;18.70;1.00;;;;;;5029729;28;21104;-74
2023/09/29 05:45:45;;;;;;;11.07;6.87;;;18.70;1.00;;;;;;5029372;28;20433;-76
2023/09/29 05:48:10;;;;;;;11.83;7.10;;;18.70;1.00;;;;;;5030242;28;20639;-75
2023/09/29 05:50:36;;;;;;;13.90;6.60;;;18.80;1.00;;;;;;5026367;28;20574;-74
2023/09/29 05:53:02;;;;;;;12.40;5.80;;;18.80;1.00;;;;;;5035274;28;20209;-73
2023/09/29 05:55:28;;;;;;;10.70;6.60;;;18.90;1.00;;;;;;5028978;28;20565;-77
2023/09/29 05:57:53;;;;;;;10.90;6.93;;;18.90;1.00;;;;;;5028948;28;20428;-73
2023/09/29 06:00:19;;;;;;;8.77;6.50;;;19.00;1.00;;;;;;5033744;28;20205;-74
2023/09/29 06:02:46;;;;;;;8.70;6.50;;;19.10;1.00;;;;;;5025394;28;20217;-76
2023/09/29 06:05:12;;;;;;;10.83;6.77;;;19.10;1.00;;;;;;5036149;28;20185;-73
2023/09/29 06:07:37;;;;;;;9.07;6.60;;;19.10;1.00;;;;;;5034484;28;20416;-75
2023/09/29 06:10:04;;;;;;;8.43;6.50;;;19.20;1.00;;;;;;5029962;28;20198;-76
2023/09/29 06:12:30;;;;;;;9.97;7.10;;;19.20;1.00;;;;;;5044585;28;20675;-72
2023/09/29 06:14:59;;;;;;;9.80;6.67;;;19.30;1.00;;;;;;5029715;28;20939;-76
2023/09/29 06:17:25;;;;;;;9.73;6.63;;;19.40;1.00;;;;;;5028703;28;20192;-74
2023/09/29 06:19:51;;;;;;;8.03;6.10;;;19.40;1.00;;;;;;5028449;28;20440;-74
2023/09/29 06:22:17;;;;;;;10.20;6.87;;;19.50;1.00;;;;;;5018355;28;20297;-74
2023/09/29 06:24:44;;;;;;;9.25;6.18;;;19.70;1.00;;;;;;5023638;28;20876;-73
2023/09/29 06:27:10;;;;;;;8.70;6.57;;;19.90;1.00;;;;;;5029202;28;20850;-73
2023/09/29 06:29:36;;;;;;;8.83;6.43;;;19.90;1.00;;;;;;5028703;28;20448;-76
2023/09/29 06:32:02;;;;;;;8.40;6.40;;;19.90;1.00;;;;;;5031368;28;20470;-73
2023/09/29 06:34:27;;;;;;;10.17;6.40;;;19.90;1.00;;;;;;5028502;28;20593;-73
2023/09/29 06:36:53;;;;;;;13.43;6.43;;;19.90;1.00;;;;;;5031529;28;20197;-73
2023/09/29 06:39:19;;;;;;;11.47;6.33;;;20.00;1.00;;;;;;5040054;28;20185;-73
2023/09/29 06:41:44;;;;;;;8.73;6.10;;;20.00;1.00;;;;;;5028882;28;20227;-73
2023/09/29 06:44:10;;;;;;;9.80;6.33;;;20.00;1.00;;;;;;5031890;28;20227;-76
2023/09/29 06:46:35;;;;;;;10.03;6.13;;;20.00;1.00;;;;;;5026397;28;20276;-75
2023/09/29 06:49:01;;;;;;;11.30;6.13;;;19.90;1.00;;;;;;5032563;28;20307;-76
2023/09/29 06:51:27;;;;;;;9.23;6.30;;;19.90;1.00;;;;;;5027778;28;20209;-76
2023/09/29 06:53:53;;;;;;;9.63;6.33;;;19.90;1.00;;;;;;5029351;28;20428;-72
2023/09/29 06:56:18;;;;;;;13.23;6.50;;;19.90;1.00;;;;;;5031015;28;20190;-70
2023/09/29 06:58:44;;;;;;;10.77;6.30;;;20.00;1.00;;;;;;5023276;28;20312;-70
2023/09/29 07:01:10;;;;;;;11.23;6.83;;;20.20;1.00;;;;;;5027380;28;20292;-70
2023/09/29 07:03:35;;;;;;;10.53;6.40;;;20.40;1.00;;;;;;5026105;28;20197;-71
2023/09/29 07:06:01;;;;;;;8.57;5.90;;;20.50;1.00;;;;;;5028326;28;20194;-69
2023/09/29 07:08:28;;;;;;;10.17;6.23;;;20.80;1.00;;;;;;5028510;28;20221;-76
2023/09/29 07:10:54;;;;;;;8.83;6.17;;;21.10;1.00;;;;;;5028087;28;20216;-71
2023/09/29 07:13:19;;;;;;;13.70;6.27;;;21.30;1.00;;;;;;5029233;28;20432;-71
2023/09/29 07:15:45;;;;;;;11.00;5.87;;;21.50;1.00;;;;;;5028351;28;20481;-71
2023/09/29 07:18:12;;;;;;;11.27;5.77;;;21.60;1.00;;;;;;5028585;28;20260;-71
2023/09/29 07:20:39;;;;;;;9.60;5.97;;;21.60;1.00;;;;;;5028093;28;20177;-72
2023/09/29 07:23:04;;;;;;;7.37;5.60;;;21.60;1.00;;;;;;5044447;28;20424;-72
2023/09/29 07:25:30;;;;;;;8.83;5.73;;;21.60;1.00;;;;;;5026967;28;20440;-70
2023/09/29 07:27:56;;;;;;;9.33;6.00;;;21.60;1.00;;;;;;5028267;28;20274;-72
2023/09/29 07:30:21;;;;;;;11.50;5.90;;;21.70;1.00;;;;;;5028189;28;20192;-71
2023/09/29 07:32:47;;;;;;;11.60;6.37;;;21.80;1.00;;;;;;5028480;28;20235;-71
2023/09/29 07:35:12;;;;;;;9.33;5.73;;;21.90;1.00;;;;;;5028577;28;20211;-71
2023/09/29 07:37:38;;;;;;;7.60;5.20;;;22.10;1.00;;;;;;5027434;28;20665;-71
2023/09/29 07:40:08;;;;;;;10.77;6.00;;;22.30;1.00;;;;;;5043672;28;20251;-70
2023/09/29 07:42:34;;;;;;;11.00;5.67;;;22.50;1.00;;;;;;5031687;28;20584;-71
2023/09/29 07:44:59;;;;;;;9.63;5.80;;;22.70;1.00;;;;;;5028061;28;20865;-71
2023/09/29 07:47:25;;;;;;;7.40;5.67;;;22.80;1.00;;;;;;5029029;28;20719;-71
2023/09/29 07:49:50;;;;;;;8.53;5.30;;;22.90;1.00;;;;;;5027986;28;20200;-72
2023/09/29 07:52:16;;;;;;;7.67;5.90;;;21.30;1.00;;;;;;5028490;28;20241;-71
2023/09/29 07:54:41;;;;;;;8.73;5.77;;;23.10;1.00;;;;;;5026763;28;20247;-73
2023/09/29 07:57:07;;;;;;;8.87;5.67;;;23.20;1.00;;;;;;5027464;28;20212;-70
2023/09/29 07:59:33;;;;;;;9.87;5.80;;;23.30;1.00;;;;;;5043302;28;20682;-69
2023/09/29 08:01:59;;;;;;;12.40;5.80;;;23.40;1.00;;;;;;5025781;28;20209;-71
2023/09/29 08:04:25;;;;;;;8.63;5.40;;;23.40;1.00;;;;;;5029617;28;20181;-75
2023/09/29 08:06:51;;;;;;;12.30;5.33;;;23.40;1.00;;;;;;5028331;28;20431;-76
2023/09/29 08:09:16;;;;;;;8.40;5.20;;;23.50;1.00;;;;;;5021288;28;20435;-76
2023/09/29 08:11:42;;;;;;;9.10;5.80;;;23.30;1.00;;;;;;5028561;28;20220;-75
2023/09/29 08:14:08;;;;;;;7.77;5.20;;;23.20;1.00;;;;;;5030476;28;20243;-74
2023/09/29 08:16:34;;;;;;;7.80;5.20;;;23.10;1.00;;;;;;5028285;28;20174;-77
2023/09/29 08:19:00;;;;;;;9.30;5.77;;;23.10;1.00;;;;;;5032022;28;20252;-76
2023/09/29 08:21:26;;;;;;;9.93;5.73;;;22.90;1.00;;;;;;5031472;28;20201;-75
2023/09/29 08:23:51;;;;;;;8.00;5.70;;;22.80;1.00;;;;;;5038654;28;20435;-74
2023/09/29 08:26:17;;;;;;;14.20;5.13;;;22.70;1.00;;;;;;5031131;28;20666;-75
2023/09/29 08:28:43;;;;;;;10.57;5.90;;;23.10;1.00;;;;;;5030977;28;20201;-74
2023/09/29 08:31:15;;;;;;;9.80;5.57;;;24.50;1.00;;;;;;5045589;28;20217;-74
2023/09/29 08:33:42;;;;;;;7.80;5.37;;;24.60;1.00;;;;;;5031445;28;20423;-74
2023/09/29 08:36:08;;;;;;;6.63;5.40;;;24.80;1.00;;;;;;5031019;28;20434;-75
2023/09/29 08:38:33;;;;;;;8.63;5.30;;;25.20;1.00;;;;;;5033669;28;20503;-76
2023/09/29 08:41:02;;;;;;;8.47;5.70;;;25.10;1.00;;;;;;5031482;28;20687;-75
2023/09/29 08:43:29;;;;;;;8.70;5.10;;;25.50;1.00;;;;;;5036636;28;20544;-75
2023/09/29 08:46:00;;;;;;;15.40;5.53;;;26.10;1.00;;;;;;5031569;28;20794;-75
2023/09/29 08:48:28;;;;;;;9.77;5.50;;;27.50;1.00;;;;;;5031699;28;20576;-74
2023/09/29 08:50:57;;;;;;;11.05;5.68;;;29.30;1.00;;;;;;5027388;28;20210;-75
2023/09/29 08:53:28;;;;;;;8.30;4.68;;;31.00;1.00;;;;;;5031531;28;20237;-74
2023/09/29 08:55:54;;;;;;;7.35;4.88;;;32.30;1.00;;;;;;5030232;28;20652;-75
2023/09/29 08:58:21;;;;;;;9.30;5.10;;;32.10;1.00;;;;;;5030461;28;20185;-75
2023/09/29 09:00:46;;;;;;;8.25;4.72;;;32.30;1.00;;;;;;5031431;28;20690;-77
2023/09/29 09:03:12;;;;;;;8.02;4.85;;;32.50;1.00;;;;;;5032538;28;20182;-75
2023/09/29 09:05:37;;;;;;;7.85;4.93;;;32.80;1.00;;;;;;5032356;28;20185;-74
2023/09/29 09:08:03;;;;;;;9.60;4.88;;;32.70;1.00;;;;;;5030490;28;20177;-76
2023/09/29 09:10:34;;;;;;;6.43;4.68;;;33.10;1.00;;;;;;5032017;28;20181;-77
2023/09/29 09:13:00;;;;;;;6.97;5.60;;;33.90;1.00;;;;;;5030749;28;20219;-75
2023/09/29 09:15:26;;;;;;;9.40;5.05;;;33.60;1.00;;;;;;5032177;28;20249;-76
2023/09/29 09:17:52;;;;;;;5.95;4.25;;;33.80;1.00;;;;;;5031603;28;20181;-75
2023/09/29 09:20:18;;;;;;;8.80;4.88;;;33.80;1.00;;;;;;5031339;28;20185;-75
2023/09/29 09:22:54;;;;;;;7.93;5.03;;;33.30;1.00;;;;;;5031195;28;20571;-75
2023/09/29 09:25:42;;;;;;;11.82;5.32;;;33.10;1.00;;;;;;5030848;28;20180;-75
2023/09/29 09:28:19;;;;;;;7.43;4.90;;;33.50;1.00;;;;;;5032043;28;20189;-76
2023/09/29 09:30:59;;;;;;;13.10;5.47;;;34.60;1.00;;;;;;5031748;28;20185;-75
2023/09/29 09:33:27;;;;;;;10.35;5.15;;;34.50;1.00;;;;;;5031982;28;20181;-76
2023/09/29 09:36:04;;;;;;;6.32;4.97;;;34.60;1.00;;;;;;5030703;28;20663;-75
2023/09/29 09:38:33;;;;;;;7.85;5.03;;;34.80;1.00;;;;;;5030629;28;20185;-76
2023/09/29 09:41:00;;;;;;;14.80;5.22;;;35.60;1.00;;;;;;5031152;28;20668;-76
2023/09/29 09:43:29;;;;;;;14.13;5.28;;;36.40;1.00;;;;;;5035756;28;20185;-75
2023/09/29 09:46:05;;;;;;;8.30;4.70;;;35.70;1.00;;;;;;5030481;28;20226;-76
2023/09/29 09:49:07;;;;;;;10.32;5.20;;;35.70;1.00;;;;;;5032129;28;20177;-77
2023/09/29 09:51:38;;;;;;;6.95;4.57;;;35.70;1.00;;;;;;5029088;28;20216;-76
2023/09/29 09:54:08;;;;;;;10.18;4.90;;;35.40;1.00;;;;;;5030232;28;20243;-75
2023/09/29 09:56:45;;;;;;;8.80;5.18;;;35.60;1.00;;;;;;5028529;28;20188;-74
2023/09/29 09:59:12;;;;;;;6.55;4.32;;;35.90;1.00;;;;;;5037922;28;20196;-71
2023/09/29 10:01:39;;;;;;;5.93;4.47;;;37.20;1.00;;;;;;5029486;28;20211;-70
2023/09/29 10:04:06;;;;;;;9.48;4.55;;;37.30;1.00;;;;;;5029608;28;20607;-74
2023/09/29 10:06:33;;;;;;;10.95;5.22;;;37.10;1.00;;;;;;5028488;28;20185;-73
2023/09/29 10:09:08;;;;;;;9.35;5.13;;;34.90;1.00;;;;;;5025956;28;20200;-73
2023/09/29 10:11:34;;;;;;;7.80;4.53;;;33.70;1.00;;;;;;5027498;28;20203;-75
2023/09/29 10:14:05;;;;;;;6.53;4.90;;;33.70;1.00;;;;;;5027507;28;20182;-78
2023/09/29 10:16:31;;;;;;;9.75;4.85;;;34.00;1.00;;;;;;5023621;28;20173;-75
2023/09/29 10:19:05;;;;;;;7.00;4.63;;;35.10;1.00;;;;;;5029025;28;20239;-75
2023/09/29 10:21:49;;;;;;;10.43;4.95;;;35.10;1.00;;;;;;5028192;28;20293;-70
2023/09/29 10:24:26;;;;;;;10.70;4.88;;;35.10;1.00;;;;;;5025493;28;20819;-76
2023/09/29 10:26:51;;;;;;;7.40;4.90;;;35.50;1.00;;;;;;5022730;28;20185;-77
2023/09/29 10:29:25;;;;;;;7.22;4.30;;;35.90;1.00;;;;;;5028873;28;20211;-77
2023/09/29 10:31:52;;;;;;;6.25;4.75;;;36.80;1.00;;;;;;5020533;28;20212;-77
2023/09/29 10:34:21;;;;;;;6.30;4.55;;;36.50;1.00;;;;;;5024419;28;20530;-78
2023/09/29 10:36:54;;;;;;;6.05;4.47;;;36.60;1.00;;;;;;5024752;28;20185;-75
2023/09/29 10:39:27;;;;;;;5.55;4.70;;;36.40;1.00;;;;;;5025218;28;20181;-74
2023/09/29 10:42:23;;;;;;;6.88;4.82;;;37.50;1.00;;;;;;5014410;28;20287;-76
2023/09/29 10:44:52;;;;;;;6.93;4.20;;;37.40;1.00;;;;;;5023686;28;21660;-74
2023/09/29 10:47:33;;;;;;;7.10;4.13;;;37.60;1.00;;;;;;5027115;28;20253;-74
2023/09/29 10:50:03;;;;;;;6.82;4.32;;;37.40;1.00;;;;;;5028877;28;20215;-74
2023/09/29 10:52:29;;;;;;;8.38;4.50;;;38.40;1.00;;;;;;5029124;28;20232;-74
2023/09/29 10:54:59;;;;;;;6.75;3.90;;;38.30;1.00;;;;;;5022708;28;20235;-74
2023/09/29 10:57:30;;;;;;;10.43;4.40;;;39.00;1.00;;;;;;5023917;28;20288;-74
2023/09/29 10:59:59;;;;;;;7.90;4.47;;;37.30;1.00;;;;;;5020444;28;20187;-73
2023/09/29 11:02:33;;;;;;;7.95;4.90;;;35.20;1.00;;;;;;5023807;28;20200;-74
2023/09/29 11:05:04;;;;;;;5.45;4.32;;;35.20;1.00;;;;;;5024235;28;20191;-76
2023/09/29 11:07:41;;;;;;;7.45;4.50;;;34.90;1.00;;;;;;5022523;28;20189;-77
2023/09/29 11:10:13;;;;;;;6.95;4.40;;;34.80;1.00;;;;;;5023725;28;20203;-78
2023/09/29 11:12:43;;;;;;;6.13;4.63;;;35.80;1.00;;;;;;5028223;28;20206;-75
2023/09/29 11:15:09;;;;;;;9.65;5.00;;;36.50;1.00;;;;;;5024836;28;20174;-76
2023/09/29 11:17:48;;;;;;;6.93;4.30;;;37.30;1.00;;;;;;5028498;28;20533;-77
2023/09/29 11:20:16;;;;;;;6.38;4.25;;;38.60;1.00;;;;;;5019575;28;20209;-75
2023/09/29 11:22:45;;;;;;;6.80;4.00;;;39.00;1.00;;;;;;5023867;28;20708;-74
2023/09/29 11:25:20;;;;;;;4.97;4.15;;;38.80;1.00;;;;;;5021097;28;20189;-74
2023/09/29 11:27:50;;;;;;;6.55;4.20;;;38.20;1.00;;;;;;5027982;28;20302;-76
2023/09/29 11:30:16;;;;;;;6.97;3.65;;;39.20;1.00;;;;;;5022967;28;20184;-76
2023/09/29 11:32:41;;;;;;;8.02;4.05;;;39.50;1.00;;;;;;5025141;28;20213;-77
2023/09/29 11:35:13;;;;;;;5.90;4.15;;;40.00;1.00;;;;;;5024234;28;20687;-74
2023/09/29 11:37:39;;;;;;;6.68;3.90;;;40.30;1.00;;;;;;5023633;28;20177;-74
2023/09/29 11:40:11;;;;;;;7.93;4.20;;;41.00;1.00;;;;;;5025260;28;20659;-75
2023/09/29 11:42:38;;;;;;;7.80;4.07;;;41.60;1.00;;;;;;5028672;28;20208;-76
2023/09/29 11:45:08;;;;;;;7.70;3.80;;;41.50;1.00;;;;;;5024566;28;20201;-75
2023/09/29 11:47:40;;;;;;;7.03;4.18;;;41.10;1.00;;;;;;5023737;28;20193;-73
2023/09/29 11:50:08;;;;;;;8.50;4.32;;;40.60;1.00;;;;;;5029736;28;20185;-73
2023/09/29 11:52:34;;;;;;;7.53;4.10;;;41.10;1.00;;;;;;5024854;28;20228;-74
2023/09/29 11:55:00;;;;;;;5.93;3.90;;;41.00;1.00;;;;;;5028519;28;20177;-77
2023/09/29 11:57:26;;;;;;;4.70;3.53;;;40.90;1.00;;;;;;5044802;28;20193;-73
2023/09/29 11:59:52;;;;;;;8.10;4.03;;;41.10;1.00;;;;;;5029677;28;20187;-73
2023/09/29 12:02:17;;;;;;;11.68;4.57;;;38.90;1.00;;;;;;5029806;28;20201;-72
2023/09/29 12:04:43;;;;;;;7.47;4.10;;;39.50;1.00;;;;;;5029166;28;20269;-75
2023/09/29 12:07:08;;;;;;;4.85;3.90;;;38.80;1.00;;;;;;5029138;28;20547;-75
2023/09/29 12:09:34;;;;;;;10.68;4.18;;;37.00;1.00;;;;;;5021648;28;20193;-74
2023/09/29 12:12:00;;;;;;;7.20;4.30;;;35.60;1.00;;;;;;5027149;28;20433;-75
2023/09/29 12:14:26;;;;;;;9.82;4.38;;;35.80;1.00;;;;;;5031219;28;20235;-76
2023/09/29 12:16:53;;;;;;;6.60;4.18;;;36.80;1.00;;;;;;5029236;28;20178;-76
2023/09/29 12:19:20;;;;;;;7.63;4.13;;;37.60;1.00;;;;;;5029483;28;20295;-76
2023/09/29 12:21:47;;;;;;;10.57;4.38;;;39.00;1.00;;;;;;5029843;28;20209;-76
2023/09/29 12:24:14;;;;;;;6.68;3.60;;;39.20;1.00;;;;;;5025441;28;20177;-79
2023/09/29 12:26:46;;;;;;;6.10;3.47;;;37.90;1.00;;;;;;5027873;28;20177;-77
2023/09/29 12:29:12;;;;;;;5.65;3.67;;;36.00;1.00;;;;;;5029199;28;20188;-75
2023/09/29 12:31:38;;;;;;;8.15;3.75;;;33.00;1.00;;;;;;5033338;28;20699;-75
2023/09/29 12:34:04;;;;;;;10.38;3.60;;;32.50;1.00;;;;;;5028301;28;20408;-73
2023/09/29 12:36:30;;;;;;;8.02;4.40;;;31.70;1.00;;;;;;5022904;28;20631;-75
2023/09/29 12:38:55;;;;;;;155.02;14.90;;;30.90;1.00;;;;;;5029462;28;20173;-75
2023/09/29 12:41:22;;;;;;;6.43;4.25;;;30.30;1.00;;;;;;5029297;28;20339;-75
2023/09/29 12:43:47;;;;;;;9.10;4.40;;;30.20;1.00;;;;;;5026416;28;20204;-74
2023/09/29 12:46:13;;;;;;;9.10;4.32;;;29.90;1.00;;;;;;5020303;28;20617;-76
2023/09/29 12:48:38;;;;;;;7.95;4.03;;;29.70;1.00;;;;;;5037407;28;20243;-76
2023/09/29 12:51:04;;;;;;;6.15;4.70;;;29.70;1.00;;;;;;5031027;28;20212;-76
2023/09/29 12:53:30;;;;;;;14.77;4.95;;;29.80;1.00;;;;;;5031827;28;20217;-76
2023/09/29 12:55:56;;;;;;;6.63;4.35;;;30.60;1.00;;;;;;5030449;28;20631;-76